Time;durP1;ratioP1;P1;durP2;ratioP2;P2;SDS_P1;SDS_P2;PMS_P1;PMS_P2;Temp;Humidity;BMP_temperature;BMP_pressure;BME280_temperature;BME280_humidity;BME280_pressure;Samples;Min_cycle;Max_cycle;Signal;HPM_P1;HPM_P2
2022/12/29 00:02:01;;;;;;;0.37;0.37;;;8.20;99.90;;;;;;4436524;32;20136;-64
2022/12/29 00:04:26;;;;;;;0.30;0.30;;;8.20;99.90;;;;;;4435203;32;20078;-63
2022/12/29 00:06:52;;;;;;;0.40;0.40;;;8.20;99.90;;;;;;4437189;32;20181;-63
2022/12/29 00:09:18;;;;;;;0.40;0.40;;;8.20;99.90;;;;;;4435485;32;20134;-65
2022/12/29 00:11:43;;;;;;;0.30;0.30;;;8.20;99.90;;;;;;4421981;32;20116;-64
2022/12/29 00:15:42;;;;;;;0.40;0.40;;;8.20;99.90;;;;;;4423881;32;20073;-64
2022/12/29 00:16:56;;;;;;;0.40;0.40;;;8.20;99.90;;;;;;4422295;32;20105;-64
2022/12/29 00:35:15;;;;;;;0.30;0.30;;;8.30;99.90;;;;;;4420945;32;20082;-62
2022/12/29 00:36:06;;;;;;;0.40;0.40;;;8.30;99.90;;;;;;4424646;32;20069;-63
2022/12/29 00:44:10;;;;;;;0.60;0.60;;;8.30;99.90;;;;;;4417712;32;20086;-64
2022/12/29 00:46:38;;;;;;;1.48;0.93;;;8.30;99.90;;;;;;4439546;32;20117;-64
2022/12/29 00:49:37;;;;;;;0.50;0.50;;;8.30;99.90;;;;;;4438520;32;20073;-63
2022/12/29 00:51:51;;;;;;;0.30;0.30;;;8.30;99.90;;;;;;4427084;32;20069;-64
2022/12/29 00:54:18;;;;;;;0.43;0.43;;;8.30;99.90;;;;;;4439552;32;20115;-63
2022/12/29 00:56:45;;;;;;;0.30;0.30;;;8.30;99.90;;;;;;4436961;32;20113;-63
2022/12/29 00:59:11;;;;;;;0.40;0.40;;;8.20;99.90;;;;;;4436938;32;20121;-63
2022/12/29 01:01:37;;;;;;;0.40;0.40;;;8.30;99.90;;;;;;4438876;32;20070;-65
2022/12/29 01:04:03;;;;;;;0.30;0.30;;;8.30;99.90;;;;;;4439574;32;20160;-64
2022/12/29 01:06:29;;;;;;;0.40;0.40;;;8.30;99.90;;;;;;4439631;32;20123;-64
2022/12/29 01:10:10;;;;;;;0.40;0.40;;;8.30;99.90;;;;;;4438919;32;20050;-64
2022/12/29 01:11:40;;;;;;;0.30;0.30;;;8.30;99.90;;;;;;4415444;32;20436;-65
2022/12/29 01:14:06;;;;;;;0.40;0.40;;;8.30;99.90;;;;;;4429226;32;20587;-63
2022/12/29 01:16:32;;;;;;;0.55;0.55;;;8.30;99.90;;;;;;4424938;32;20074;-64
2022/12/29 01:18:58;;;;;;;0.50;0.50;;;8.30;99.90;;;;;;4441698;32;20133;-65
2022/12/29 01:21:24;;;;;;;0.20;0.20;;;8.30;99.90;;;;;;4439719;32;20113;-65
2022/12/29 01:23:49;;;;;;;0.40;0.35;;;8.30;99.90;;;;;;4441901;32;20068;-62
2022/12/29 01:26:16;;;;;;;0.60;0.60;;;8.30;99.90;;;;;;4440875;32;20081;-65
2022/12/29 01:28:43;;;;;;;0.45;0.45;;;8.40;99.90;;;;;;4438216;32;20209;-63
2022/12/29 01:31:10;;;;;;;0.45;0.45;;;8.40;99.90;;;;;;4424579;32;20097;-64
2022/12/29 01:33:36;;;;;;;2.20;0.82;;;8.40;99.90;;;;;;4439142;32;20086;-64
2022/12/29 01:36:02;;;;;;;0.40;0.40;;;8.40;99.90;;;;;;4436372;32;20088;-62
2022/12/29 01:38:28;;;;;;;0.30;0.30;;;8.50;99.90;;;;;;4437724;32;20129;-65
2022/12/29 01:40:53;;;;;;;0.60;0.60;;;8.50;99.90;;;;;;4431746;32;20077;-65
2022/12/29 01:43:19;;;;;;;0.98;0.98;;;8.40;99.90;;;;;;4411140;32;20753;-65
2022/12/29 01:45:51;;;;;;;0.30;0.30;;;8.40;99.90;;;;;;4435186;32;20179;-64
2022/12/29 01:48:18;;;;;;;0.30;0.30;;;8.30;99.90;;;;;;4435514;32;20553;-62
2022/12/29 01:50:50;;;;;;;0.65;0.65;;;8.40;99.90;;;;;;4441027;32;20120;-65
2022/12/29 01:53:20;;;;;;;0.30;0.30;;;8.30;99.90;;;;;;4438271;32;20098;-65
2022/12/29 01:55:50;;;;;;;0.32;0.32;;;8.40;99.90;;;;;;4435483;32;20600;-63
2022/12/29 01:58:20;;;;;;;0.30;0.30;;;8.40;99.90;;;;;;4436508;32;20092;-64
2022/12/29 02:00:45;;;;;;;0.40;0.40;;;8.40;99.90;;;;;;4439674;32;20097;-64
2022/12/29 02:03:11;;;;;;;21.05;3.97;;;8.40;99.90;;;;;;4434461;32;20114;-62
2022/12/29 02:05:48;;;;;;;0.45;0.45;;;8.40;99.90;;;;;;4437196;32;20086;-65
2022/12/29 02:08:14;;;;;;;0.30;0.30;;;8.50;99.90;;;;;;4437611;32;20054;-64
2022/12/29 02:10:41;;;;;;;0.30;0.30;;;8.50;99.90;;;;;;4432810;32;20113;-63
2022/12/29 02:13:06;;;;;;;0.40;0.35;;;8.50;99.90;;;;;;4424184;32;20081;-64
2022/12/29 02:15:57;;;;;;;0.30;0.30;;;8.50;99.90;;;;;;4434501;32;20119;-65
2022/12/29 02:18:27;;;;;;;;;;;8.50;99.90;;;;;;4428067;32;20094;-63
2022/12/29 02:21:21;;;;;;;0.40;0.40;;;8.50;99.90;;;;;;4440409;32;20182;-64
2022/12/29 02:24:11;;;;;;;0.40;0.40;;;8.50;99.90;;;;;;4425483;32;20061;-64
2022/12/29 02:27:15;;;;;;;6.32;1.15;;;8.60;99.90;;;;;;4437383;32;20101;-64
2022/12/29 02:29:53;;;;;;;0.32;0.32;;;8.60;99.90;;;;;;4430236;32;20098;-62
2022/12/29 02:32:58;;;;;;;0.40;0.40;;;8.60;99.90;;;;;;4435309;32;20086;-65
2022/12/29 02:35:35;;;;;;;1.00;0.90;;;8.70;99.90;;;;;;4429485;32;20081;-65
2022/12/29 02:38:13;;;;;;;0.30;0.30;;;8.80;99.90;;;;;;4436357;32;20101;-64
2022/12/29 02:41:05;;;;;;;0.30;0.30;;;8.80;99.90;;;;;;4435331;32;20097;-64
2022/12/29 02:43:56;;;;;;;0.32;0.32;;;8.80;99.90;;;;;;4414074;32;20034;-65
2022/12/29 02:46:42;;;;;;;0.40;0.40;;;8.80;99.90;;;;;;4414485;32;20086;-62
2022/12/29 02:49:15;;;;;;;0.40;0.40;;;8.80;99.90;;;;;;4425498;32;20062;-64
2022/12/29 02:51:52;;;;;;;0.50;0.50;;;8.80;99.90;;;;;;4436251;32;20124;-62
2022/12/29 02:54:50;;;;;;;0.37;0.37;;;8.90;99.90;;;;;;4435524;32;20090;-64
2022/12/29 02:57:25;;;;;;;0.30;0.30;;;8.90;99.90;;;;;;4413531;32;20136;-64
2022/12/29 03:00:10;;;;;;;0.70;0.70;;;8.90;99.90;;;;;;4427252;32;20073;-64
2022/12/29 03:03:05;;;;;;;0.30;0.30;;;9.00;99.90;;;;;;4436307;32;20073;-64
2022/12/29 03:05:40;;;;;;;0.30;0.30;;;9.00;99.90;;;;;;4425532;32;20049;-59
2022/12/29 03:08:22;;;;;;;0.68;0.68;;;9.00;99.90;;;;;;4435570;32;20108;-62
2022/12/29 03:10:55;;;;;;;0.30;0.30;;;9.10;99.90;;;;;;4417295;32;20092;-63
2022/12/29 03:16:10;;;;;;;0.30;0.30;;;9.10;99.90;;;;;;4422212;32;20488;-64
2022/12/29 03:16:45;;;;;;;0.32;0.32;;;9.10;99.90;;;;;;4407768;32;20105;-64
2022/12/29 03:19:34;;;;;;;0.40;0.40;;;9.10;99.90;;;;;;4426309;32;20077;-62
2022/12/29 03:22:35;;;;;;;0.43;0.43;;;9.20;99.90;;;;;;4437704;32;20081;-62
2022/12/29 03:24:56;;;;;;;0.40;0.40;;;9.20;99.90;;;;;;4424255;32;20077;-62
2022/12/29 03:27:31;;;;;;;32.63;0.70;;;9.20;99.90;;;;;;4438747;32;20089;-63
2022/12/29 03:30:00;;;;;;;0.85;0.60;;;9.20;99.90;;;;;;4437220;32;20066;-64
2022/12/29 03:32:31;;;;;;;0.30;0.30;;;9.20;99.90;;;;;;4436477;32;20132;-60
2022/12/29 03:34:58;;;;;;;0.30;0.30;;;9.20;99.90;;;;;;4420747;32;20766;-63
2022/12/29 03:37:30;;;;;;;0.50;0.50;;;9.20;99.90;;;;;;4433955;32;20097;-60
2022/12/29 03:39:56;;;;;;;0.50;0.45;;;9.30;99.90;;;;;;4436184;32;20103;-64
2022/12/29 03:42:27;;;;;;;1.45;0.68;;;9.30;99.90;;;;;;4422863;32;20058;-64
2022/12/29 03:44:56;;;;;;;0.30;0.30;;;9.30;99.90;;;;;;4428845;32;20065;-60
2022/12/29 03:47:21;;;;;;;0.35;0.35;;;9.30;99.90;;;;;;4422527;32;20073;-60
2022/12/29 03:49:47;;;;;;;0.30;0.30;;;9.30;99.90;;;;;;4423646;32;20089;-63
2022/12/29 03:52:12;;;;;;;0.45;0.45;;;9.30;99.90;;;;;;4435613;32;20095;-64
2022/12/29 03:54:38;;;;;;;2.62;1.80;;;9.30;99.90;;;;;;4440780;32;20086;-62
2022/12/29 03:57:03;;;;;;;0.40;0.40;;;9.30;99.90;;;;;;4437151;32;20581;-63
2022/12/29 03:59:29;;;;;;;0.47;0.47;;;9.40;99.90;;;;;;4436342;32;20057;-61
2022/12/29 04:01:55;;;;;;;0.30;0.30;;;9.40;99.90;;;;;;4437237;32;20057;-63
2022/12/29 04:04:21;;;;;;;0.50;0.50;;;9.40;99.90;;;;;;4436367;32;20077;-63
2022/12/29 04:06:46;;;;;;;0.80;0.40;;;9.40;99.90;;;;;;4435781;32;20065;-63
2022/12/29 04:09:12;;;;;;;0.40;0.40;;;9.50;99.90;;;;;;4438114;32;20134;-60
2022/12/29 04:11:37;;;;;;;0.50;0.50;;;9.40;99.90;;;;;;4427096;32;20077;-62
2022/12/29 04:14:03;;;;;;;0.40;0.40;;;9.50;99.90;;;;;;4428420;32;20083;-63
2022/12/29 04:16:28;;;;;;;0.88;0.52;;;9.50;99.90;;;;;;4426764;32;20660;-62
2022/12/29 04:18:54;;;;;;;0.40;0.40;;;9.50;99.90;;;;;;4438294;32;20058;-63
2022/12/29 04:21:19;;;;;;;0.43;0.43;;;9.50;99.90;;;;;;4439524;32;20085;-63
2022/12/29 04:23:44;;;;;;;0.32;0.32;;;9.50;99.90;;;;;;4439079;32;20069;-63
2022/12/29 04:26:11;;;;;;;0.50;0.50;;;9.60;99.90;;;;;;4440268;32;20122;-61
2022/12/29 04:28:36;;;;;;;0.30;0.30;;;9.60;99.90;;;;;;4438870;32;20065;-60
2022/12/29 04:31:03;;;;;;;0.30;0.30;;;9.60;99.90;;;;;;4426987;32;20034;-61
2022/12/29 04:33:29;;;;;;;0.40;0.40;;;9.60;99.90;;;;;;4439821;32;20092;-63
2022/12/29 04:35:55;;;;;;;0.30;0.30;;;9.60;99.90;;;;;;4439122;32;20078;-63
2022/12/29 04:38:22;;;;;;;0.40;0.40;;;9.60;99.90;;;;;;4439772;32;20097;-63
2022/12/29 04:40:48;;;;;;;0.50;0.50;;;9.60;99.90;;;;;;4433432;32;20080;-63
2022/12/29 04:43:14;;;;;;;0.25;0.25;;;9.60;99.90;;;;;;4427641;32;20074;-64
2022/12/29 04:45:44;;;;;;;0.40;0.40;;;9.60;99.90;;;;;;4434274;32;20157;-63
2022/12/29 04:48:09;;;;;;;0.30;0.30;;;9.60;99.90;;;;;;4437075;32;20120;-63
2022/12/29 04:50:35;;;;;;;0.57;0.47;;;9.60;99.90;;;;;;4438857;32;20086;-62
2022/12/29 04:53:00;;;;;;;0.35;0.35;;;9.60;99.90;;;;;;4438194;32;20149;-61
2022/12/29 04:55:26;;;;;;;0.30;0.30;;;9.70;99.90;;;;;;4439522;32;20103;-63
2022/12/29 04:57:51;;;;;;;1.42;1.33;;;9.60;99.90;;;;;;4439802;32;20451;-65
2022/12/29 05:00:17;;;;;;;0.40;0.40;;;9.60;99.90;;;;;;4442967;32;20207;-66
2022/12/29 05:02:42;;;;;;;0.60;0.60;;;9.60;99.90;;;;;;4425538;32;20073;-64
2022/12/29 05:05:08;;;;;;;0.30;0.30;;;9.60;99.90;;;;;;4439412;32;20089;-61
2022/12/29 05:07:34;;;;;;;0.40;0.40;;;9.70;99.90;;;;;;4439046;32;20068;-60
2022/12/29 05:10:00;;;;;;;0.50;0.50;;;9.70;99.90;;;;;;4436594;32;20062;-62
2022/12/29 05:12:25;;;;;;;0.30;0.30;;;9.70;99.90;;;;;;4428106;32;20102;-65
2022/12/29 05:14:51;;;;;;;0.50;0.50;;;9.70;99.90;;;;;;4430857;32;20377;-61
2022/12/29 05:17:16;;;;;;;0.40;0.40;;;9.70;99.90;;;;;;4437057;32;20061;-64
2022/12/29 05:19:42;;;;;;;0.50;0.50;;;9.70;99.90;;;;;;4440091;32;20082;-63
2022/12/29 05:22:07;;;;;;;0.40;0.40;;;9.70;99.90;;;;;;4441399;32;20097;-64
2022/12/29 05:24:33;;;;;;;0.37;0.37;;;9.70;99.90;;;;;;4440111;32;20077;-64
2022/12/29 05:26:58;;;;;;;1.85;0.60;;;9.80;99.90;;;;;;4438380;32;20073;-65
2022/12/29 05:29:23;;;;;;;0.40;0.40;;;9.80;99.90;;;;;;4439462;32;20130;-65
2022/12/29 05:31:49;;;;;;;0.30;0.30;;;9.80;99.90;;;;;;4439692;32;20065;-64
2022/12/29 05:34:14;;;;;;;0.70;0.55;;;9.80;99.90;;;;;;4440868;32;20049;-62
2022/12/29 05:36:40;;;;;;;0.40;0.40;;;9.90;99.90;;;;;;4443815;32;20286;-64
2022/12/29 05:39:07;;;;;;;0.68;0.68;;;9.90;99.90;;;;;;4441187;32;20106;-62
2022/12/29 05:41:33;;;;;;;0.40;0.40;;;9.90;99.90;;;;;;4429308;32;20098;-65
2022/12/29 05:43:58;;;;;;;0.40;0.40;;;9.90;99.90;;;;;;4413941;32;20089;-66
2022/12/29 05:46:24;;;;;;;0.37;0.37;;;10.00;99.90;;;;;;4438818;32;20054;-61
2022/12/29 05:48:49;;;;;;;4.78;0.62;;;10.00;99.90;;;;;;4435625;32;20097;-63
2022/12/29 05:51:15;;;;;;;0.30;0.30;;;10.00;99.90;;;;;;4441453;32;20106;-62
2022/12/29 05:53:40;;;;;;;0.50;0.50;;;10.10;99.90;;;;;;4420851;32;20089;-59
2022/12/29 05:56:06;;;;;;;0.40;0.40;;;10.20;99.90;;;;;;4434765;32;20074;-63
2022/12/29 05:58:31;;;;;;;0.30;0.30;;;10.20;99.90;;;;;;4436225;32;20282;-64
2022/12/29 06:00:57;;;;;;;0.77;0.70;;;10.20;99.90;;;;;;4437300;32;20069;-62
2022/12/29 06:03:22;;;;;;;0.35;0.35;;;10.20;99.90;;;;;;4433004;32;20049;-62
2022/12/29 06:05:48;;;;;;;0.30;0.30;;;10.20;99.90;;;;;;4432912;32;20094;-64
2022/12/29 06:08:13;;;;;;;0.37;0.37;;;10.20;99.90;;;;;;4430103;32;20815;-65
2022/12/29 06:10:40;;;;;;;0.30;0.30;;;10.30;99.90;;;;;;4427503;32;20104;-63
2022/12/29 06:13:05;;;;;;;0.40;0.40;;;10.30;99.90;;;;;;4414422;32;20735;-64
2022/12/29 06:15:32;;;;;;;0.40;0.40;;;10.40;99.90;;;;;;4404055;32;20074;-62
2022/12/29 06:17:58;;;;;;;0.30;0.30;;;10.40;99.90;;;;;;4413714;32;20301;-62
2022/12/29 06:20:23;;;;;;;0.50;0.50;;;10.40;99.90;;;;;;4431042;32;20546;-62
2022/12/29 06:22:49;;;;;;;0.30;0.30;;;10.40;99.90;;;;;;4428415;32;20109;-63
2022/12/29 06:25:15;;;;;;;0.40;0.40;;;10.40;99.90;;;;;;4429705;32;20066;-63
2022/12/29 06:27:41;;;;;;;0.47;0.47;;;10.40;99.90;;;;;;4432984;32;20082;-63
2022/12/29 06:30:08;;;;;;;0.50;0.50;;;10.40;99.90;;;;;;4434073;32;20082;-62
2022/12/29 06:32:34;;;;;;;0.50;0.50;;;10.50;99.90;;;;;;4432968;32;20065;-65
2022/12/29 06:34:59;;;;;;;0.30;0.30;;;10.50;99.90;;;;;;4432880;32;20368;-65
2022/12/29 06:37:25;;;;;;;0.40;0.40;;;10.40;99.90;;;;;;4437629;32;20089;-63
2022/12/29 06:39:50;;;;;;;0.40;0.40;;;10.40;99.90;;;;;;4434907;32;20154;-65
2022/12/29 06:42:16;;;;;;;0.40;0.40;;;10.40;99.90;;;;;;4419991;32;20077;-65
2022/12/29 06:44:41;;;;;;;1.55;1.05;;;10.40;99.90;;;;;;4419447;32;20075;-65
2022/12/29 06:47:07;;;;;;;0.32;0.32;;;10.40;99.90;;;;;;4430102;32;20119;-63
2022/12/29 06:49:32;;;;;;;0.30;0.30;;;10.50;99.90;;;;;;4436466;32;20081;-62
2022/12/29 06:51:59;;;;;;;0.40;0.40;;;10.40;99.90;;;;;;4436477;32;20211;-65
2022/12/29 06:54:25;;;;;;;0.40;0.40;;;10.40;99.90;;;;;;4436738;32;20111;-64
2022/12/29 06:56:50;;;;;;;0.60;0.57;;;10.40;99.90;;;;;;4436837;32;20045;-64
2022/12/29 06:59:15;;;;;;;0.40;0.40;;;10.30;99.90;;;;;;4438381;32;20081;-62
2022/12/29 07:01:41;;;;;;;0.62;0.47;;;10.30;99.90;;;;;;4432973;32;20628;-65
2022/12/29 07:04:06;;;;;;;0.40;0.40;;;10.30;99.90;;;;;;4426224;32;20101;-64
2022/12/29 07:06:32;;;;;;;0.30;0.30;;;10.40;99.90;;;;;;4429174;32;20049;-62
2022/12/29 07:08:57;;;;;;;0.40;0.40;;;10.30;99.90;;;;;;4438290;32;20077;-65
2022/12/29 07:11:23;;;;;;;0.30;0.30;;;10.30;99.90;;;;;;4425196;32;20065;-65
2022/12/29 07:13:49;;;;;;;0.57;0.57;;;10.20;99.90;;;;;;4417608;32;20073;-65
2022/12/29 07:16:14;;;;;;;0.50;0.50;;;10.30;99.90;;;;;;4431062;32;20097;-65
2022/12/29 07:18:40;;;;;;;1.50;0.93;;;10.20;99.90;;;;;;4434532;32;20401;-65
2022/12/29 07:21:05;;;;;;;0.43;0.40;;;10.20;99.90;;;;;;4436685;32;20119;-62
2022/12/29 07:23:31;;;;;;;0.30;0.30;;;10.20;99.90;;;;;;4435647;32;20103;-62
2022/12/29 07:26:06;;;;;;;0.52;0.52;;;10.20;99.90;;;;;;4437836;32;20172;-64
2022/12/29 07:28:32;;;;;;;1.23;1.05;;;10.20;99.90;;;;;;4436128;32;20089;-63
2022/12/29 07:30:58;;;;;;;0.30;0.30;;;10.20;99.90;;;;;;4428646;32;193663;-64
2022/12/29 07:33:24;;;;;;;0.40;0.40;;;10.20;99.90;;;;;;4411922;32;20101;-63
2022/12/29 07:35:50;;;;;;;0.30;0.30;;;10.20;99.90;;;;;;4410376;32;20207;-65
2022/12/29 07:38:16;;;;;;;0.40;0.40;;;10.20;99.90;;;;;;4431713;32;20057;-64
2022/12/29 07:40:42;;;;;;;0.40;0.40;;;10.20;99.90;;;;;;4427777;32;20164;-63
2022/12/29 07:43:07;;;;;;;0.30;0.30;;;10.20;99.90;;;;;;4418346;32;20073;-65
2022/12/29 07:45:33;;;;;;;0.30;0.30;;;10.20;99.90;;;;;;4424546;32;20640;-63
2022/12/29 07:47:58;;;;;;;0.40;0.40;;;10.20;99.90;;;;;;4434150;32;20941;-63
2022/12/29 07:50:24;;;;;;;0.50;0.50;;;10.30;99.90;;;;;;4437068;32;20105;-64
2022/12/29 07:52:49;;;;;;;0.20;0.20;;;10.30;99.90;;;;;;4434056;32;20817;-63
2022/12/29 07:55:16;;;;;;;0.40;0.40;;;10.20;99.90;;;;;;4434236;32;20066;-63
2022/12/29 07:57:41;;;;;;;0.40;0.40;;;10.30;99.90;;;;;;4433156;32;20090;-64
2022/12/29 08:00:07;;;;;;;0.30;0.30;;;10.30;99.90;;;;;;4433826;32;20101;-62
2022/12/29 08:02:33;;;;;;;0.30;0.30;;;10.40;99.90;;;;;;4429241;32;20478;-64
2022/12/29 08:04:58;;;;;;;0.30;0.30;;;10.30;99.90;;;;;;4423245;32;20357;-64
2022/12/29 08:07:23;;;;;;;0.30;0.30;;;10.40;99.90;;;;;;4428732;32;20475;-60
2022/12/29 08:09:49;;;;;;;0.40;0.40;;;10.40;99.90;;;;;;4430427;32;20073;-65
2022/12/29 08:12:15;;;;;;;0.30;0.30;;;10.40;99.90;;;;;;4420852;32;20135;-64
2022/12/29 08:14:40;;;;;;;0.30;0.30;;;10.40;99.90;;;;;;4420544;32;20073;-65
2022/12/29 08:17:06;;;;;;;0.47;0.47;;;10.40;99.90;;;;;;4427121;32;20880;-64
2022/12/29 08:19:31;;;;;;;0.30;0.30;;;10.50;99.90;;;;;;4434322;32;20069;-62
2022/12/29 08:21:56;;;;;;;0.30;0.30;;;10.50;99.90;;;;;;4434073;32;20499;-64
2022/12/29 08:24:22;;;;;;;0.35;0.35;;;10.60;99.90;;;;;;4431004;32;20098;-62
2022/12/29 08:26:47;;;;;;;0.30;0.30;;;10.50;99.90;;;;;;4432796;32;20081;-63
2022/12/29 08:29:13;;;;;;;0.30;0.30;;;10.50;99.90;;;;;;4431506;32;20097;-63
2022/12/29 08:31:38;;;;;;;0.30;0.30;;;10.50;99.90;;;;;;4431128;32;20091;-62
2022/12/29 08:34:04;;;;;;;0.30;0.30;;;10.50;99.90;;;;;;4422610;32;20089;-65
2022/12/29 08:36:30;;;;;;;0.37;0.37;;;10.50;99.90;;;;;;4428741;32;20081;-64
2022/12/29 08:38:56;;;;;;;0.40;0.40;;;10.60;99.90;;;;;;4434498;32;20162;-64
2022/12/29 08:41:22;;;;;;;0.20;0.20;;;10.60;99.90;;;;;;4421992;32;20085;-64
2022/12/29 08:43:49;;;;;;;0.32;0.32;;;10.60;99.90;;;;;;4415742;32;20121;-64
2022/12/29 08:46:16;;;;;;;0.30;0.30;;;10.50;99.90;;;;;;4421929;32;20062;-63
2022/12/29 08:48:41;;;;;;;0.30;0.30;;;10.50;99.90;;;;;;4430241;32;20121;-64
2022/12/29 08:51:07;;;;;;;0.40;0.40;;;10.50;99.90;;;;;;4431408;32;20077;-61
2022/12/29 08:53:33;;;;;;;0.40;0.40;;;10.60;99.90;;;;;;4432134;32;21945;-62
2022/12/29 08:56:00;;;;;;;0.45;0.45;;;10.70;99.90;;;;;;4434129;32;20067;-63
2022/12/29 08:58:27;;;;;;;0.40;0.40;;;10.70;99.90;;;;;;4433707;32;20093;-62
2022/12/29 09:00:56;;;;;;;0.40;0.40;;;10.70;99.90;;;;;;4436531;32;20102;-63
2022/12/29 09:03:23;;;;;;;0.60;0.60;;;10.80;99.90;;;;;;4426583;32;20109;-61
2022/12/29 09:05:50;;;;;;;0.45;0.45;;;10.80;99.90;;;;;;4427599;32;20085;-64
2022/12/29 09:08:16;;;;;;;0.45;0.45;;;10.80;99.90;;;;;;4434805;32;20100;-63
2022/12/29 09:10:42;;;;;;;0.37;0.37;;;10.80;99.90;;;;;;4429197;32;20110;-63
2022/12/29 09:13:08;;;;;;;0.68;0.50;;;10.80;99.90;;;;;;4415420;32;20429;-64
2022/12/29 09:15:33;;;;;;;0.30;0.30;;;10.80;99.90;;;;;;4423427;32;20086;-63
2022/12/29 09:17:59;;;;;;;0.35;0.35;;;10.80;99.90;;;;;;4434943;32;20084;-61
2022/12/29 09:20:24;;;;;;;0.30;0.30;;;10.90;99.90;;;;;;4431024;32;20106;-62
2022/12/29 09:22:50;;;;;;;0.50;0.50;;;10.90;99.90;;;;;;4436092;32;20174;-64
2022/12/29 09:25:16;;;;;;;0.47;0.40;;;11.00;99.90;;;;;;4434696;32;20100;-62
2022/12/29 09:27:42;;;;;;;0.40;0.40;;;11.20;99.90;;;;;;4421451;32;20069;-62
2022/12/29 09:30:11;;;;;;;0.82;0.82;;;11.30;99.90;;;;;;4434524;32;20073;-61
2022/12/29 09:32:37;;;;;;;0.40;0.40;;;11.30;99.90;;;;;;4428880;32;20633;-64
2022/12/29 09:35:03;;;;;;;0.30;0.30;;;11.40;99.90;;;;;;4425824;32;20518;-63
2022/12/29 09:37:29;;;;;;;0.28;0.28;;;11.50;99.90;;;;;;4434890;32;20101;-64
2022/12/29 09:39:55;;;;;;;0.40;0.40;;;11.40;99.90;;;;;;4433085;32;20116;-63
2022/12/29 09:42:39;;;;;;;1.30;0.43;;;11.40;99.90;;;;;;4415006;32;20123;-64
2022/12/29 09:45:11;;;;;;;0.65;0.35;;;11.40;99.90;;;;;;4418921;32;20121;-62
2022/12/29 09:47:38;;;;;;;0.30;0.30;;;11.30;99.90;;;;;;4431026;32;20089;-60
2022/12/29 09:50:17;;;;;;;12.48;1.05;;;11.40;99.90;;;;;;4435991;32;20065;-61
2022/12/29 09:52:51;;;;;;;0.30;0.30;;;11.40;99.90;;;;;;4441124;32;20127;-63
2022/12/29 09:55:21;;;;;;;0.40;0.40;;;11.50;99.90;;;;;;4435836;32;20271;-60
2022/12/29 09:57:56;;;;;;;0.30;0.30;;;11.60;99.90;;;;;;4435384;32;20097;-62
2022/12/29 10:00:28;;;;;;;0.30;0.30;;;11.80;99.90;;;;;;4435855;32;20147;-62
2022/12/29 10:03:02;;;;;;;0.30;0.30;;;11.80;99.90;;;;;;4430787;32;20121;-63
2022/12/29 10:05:39;;;;;;;0.40;0.40;;;11.80;99.90;;;;;;4427496;32;20070;-62
2022/12/29 10:08:25;;;;;;;0.30;0.30;;;11.80;99.90;;;;;;4435268;32;20084;-63
2022/12/29 10:10:56;;;;;;;0.40;0.40;;;11.70;99.90;;;;;;4432080;32;20077;-64
2022/12/29 10:13:46;;;;;;;0.30;0.30;;;11.80;99.90;;;;;;4423167;32;20315;-64
2022/12/29 10:16:17;;;;;;;0.40;0.40;;;11.80;99.90;;;;;;4413751;32;20113;-63
2022/12/29 10:19:07;;;;;;;0.50;0.50;;;12.00;99.90;;;;;;4433116;32;20262;-61
2022/12/29 10:22:13;;;;;;;0.32;0.32;;;12.10;99.90;;;;;;4435462;32;20081;-63
2022/12/29 10:24:39;;;;;;;0.30;0.30;;;12.10;99.90;;;;;;4421529;32;20085;-60
2022/12/29 10:27:11;;;;;;;0.37;0.37;;;12.20;99.90;;;;;;4435706;32;20097;-61
2022/12/29 10:29:45;;;;;;;0.85;0.85;;;12.30;99.90;;;;;;4434860;32;20097;-63
2022/12/29 10:32:36;;;;;;;7.65;1.12;;;12.40;99.90;;;;;;4428286;32;20109;-63
2022/12/29 10:35:06;;;;;;;;;;;12.50;99.90;;;;;;4415279;32;20131;-61
2022/12/29 10:37:43;;;;;;;0.50;0.50;;;12.50;99.90;;;;;;4432770;32;19996;-62
2022/12/29 10:40:19;;;;;;;0.50;0.50;;;12.50;99.90;;;;;;4414274;32;20831;-63
2022/12/29 10:42:51;;;;;;;0.40;0.40;;;12.60;99.90;;;;;;4415581;32;20087;-66
2022/12/29 10:45:19;;;;;;;0.50;0.50;;;12.60;99.90;;;;;;4422264;32;20081;-65
2022/12/29 10:48:06;;;;;;;0.40;0.40;;;12.60;99.90;;;;;;4430304;32;20102;-63
2022/12/29 10:50:32;;;;;;;0.50;0.50;;;12.50;99.90;;;;;;4423808;32;20249;-63
2022/12/29 10:53:01;;;;;;;0.40;0.40;;;12.50;99.90;;;;;;4434108;32;20089;-62
2022/12/29 10:55:31;;;;;;;1.85;1.05;;;12.40;99.90;;;;;;4433524;32;20090;-60
2022/12/29 10:58:04;;;;;;;0.60;0.60;;;12.40;99.90;;;;;;4422199;32;20085;-64
2022/12/29 11:00:31;;;;;;;0.35;0.35;;;12.40;99.90;;;;;;4436543;32;20078;-63
2022/12/29 11:03:07;;;;;;;0.40;0.40;;;12.40;99.90;;;;;;4427253;32;20342;-61
2022/12/29 11:05:40;;;;;;;0.30;0.30;;;12.40;99.90;;;;;;4426873;32;20078;-63
2022/12/29 11:08:15;;;;;;;0.40;0.40;;;12.40;99.90;;;;;;4432760;32;20069;-62
2022/12/29 11:10:42;;;;;;;0.40;0.40;;;12.30;99.90;;;;;;4428797;32;20089;-64
2022/12/29 11:13:15;;;;;;;0.35;0.35;;;12.30;99.90;;;;;;4402316;32;20129;-64
2022/12/29 11:15:46;;;;;;;0.47;0.47;;;12.30;99.90;;;;;;4422469;32;20133;-62
2022/12/29 11:18:20;;;;;;;0.40;0.40;;;12.30;99.90;;;;;;4412257;32;20104;-60
2022/12/29 11:20:46;;;;;;;0.40;0.40;;;12.20;99.90;;;;;;4434399;32;20085;-60
2022/12/29 11:23:33;;;;;;;0.62;0.62;;;12.20;99.90;;;;;;4432767;32;20851;-64
2022/12/29 11:26:23;;;;;;;0.37;0.37;;;12.10;99.90;;;;;;4417696;32;20577;-61
2022/12/29 11:29:11;;;;;;;0.57;0.57;;;12.10;99.90;;;;;;4432024;32;20073;-61
2022/12/29 11:31:41;;;;;;;0.30;0.30;;;12.00;99.90;;;;;;4419375;32;20050;-63
2022/12/29 11:34:08;;;;;;;0.50;0.50;;;11.90;99.90;;;;;;4422196;32;20595;-63
2022/12/29 11:36:35;;;;;;;0.50;0.50;;;11.90;99.90;;;;;;4414291;32;20077;-62
2022/12/29 11:39:00;;;;;;;0.40;0.40;;;11.80;99.90;;;;;;4437331;32;20090;-64
2022/12/29 11:41:29;;;;;;;0.45;0.43;;;11.70;99.90;;;;;;4424945;32;20070;-63
2022/12/29 11:43:58;;;;;;;0.40;0.40;;;11.70;99.90;;;;;;4413002;32;20273;-63
2022/12/29 11:46:28;;;;;;;5.72;0.95;;;11.60;99.90;;;;;;4424050;32;20061;-62
2022/12/29 11:48:58;;;;;;;0.37;0.37;;;11.50;99.90;;;;;;4431903;32;20069;-65
2022/12/29 11:51:28;;;;;;;0.40;0.40;;;11.40;99.90;;;;;;4432294;32;20101;-60
2022/12/29 11:53:59;;;;;;;0.30;0.30;;;11.40;99.90;;;;;;4436214;32;20121;-63
2022/12/29 11:56:43;;;;;;;3.40;0.57;;;11.40;99.90;;;;;;4436749;32;20118;-61
2022/12/29 11:59:29;;;;;;;0.40;0.40;;;11.30;99.90;;;;;;4424122;32;20073;-61
2022/12/29 12:01:58;;;;;;;0.30;0.30;;;11.20;99.90;;;;;;4423697;32;20117;-64
2022/12/29 12:04:27;;;;;;;0.37;0.37;;;11.10;99.90;;;;;;4429479;32;20122;-63
2022/12/29 12:07:16;;;;;;;0.40;0.40;;;11.00;99.90;;;;;;4433235;32;20077;-62
2022/12/29 12:09:49;;;;;;;0.30;0.30;;;10.70;99.90;;;;;;4424597;32;20081;-63
2022/12/29 12:12:37;;;;;;;0.30;0.30;;;10.60;99.90;;;;;;4420061;32;20515;-63
2022/12/29 12:15:03;;;;;;;0.30;0.30;;;10.50;99.90;;;;;;4407400;32;20105;-64
2022/12/29 12:17:38;;;;;;;0.40;0.40;;;10.50;99.90;;;;;;4432852;32;20073;-60
2022/12/29 12:20:35;;;;;;;0.22;0.22;;;10.50;99.90;;;;;;4432688;32;20078;-60
2022/12/29 12:23:27;;;;;;;0.30;0.30;;;10.50;99.90;;;;;;4419866;32;20106;-62
2022/12/29 12:26:01;;;;;;;0.40;0.40;;;10.50;99.90;;;;;;4423078;32;20077;-64
2022/12/29 12:28:52;;;;;;;0.30;0.30;;;10.50;99.90;;;;;;4438287;32;20098;-61
2022/12/29 12:31:28;;;;;;;0.40;0.40;;;10.40;99.90;;;;;;4427557;32;20077;-65
2022/12/29 12:34:00;;;;;;;0.30;0.30;;;10.40;99.90;;;;;;4428233;32;20112;-66
2022/12/29 12:36:52;;;;;;;0.40;0.40;;;10.30;99.90;;;;;;4431873;32;20090;-65
2022/12/29 12:39:45;;;;;;;0.32;0.32;;;10.40;99.90;;;;;;4422533;32;20085;-64
2022/12/29 12:42:27;;;;;;;0.40;0.40;;;10.30;99.90;;;;;;4417701;32;20206;-64
2022/12/29 12:45:26;;;;;;;0.40;0.40;;;10.30;99.90;;;;;;4423146;32;20118;-64
2022/12/29 12:48:10;;;;;;;0.40;0.40;;;10.20;99.90;;;;;;4428583;32;20109;-64
2022/12/29 12:50:45;;;;;;;0.30;0.30;;;10.20;99.90;;;;;;4440816;32;20049;-64
2022/12/29 12:53:23;;;;;;;0.30;0.30;;;10.10;99.90;;;;;;4437493;32;20080;-64
2022/12/29 12:56:15;;;;;;;0.35;0.35;;;10.20;99.90;;;;;;4439801;32;20085;-63
2022/12/29 12:58:54;;;;;;;0.55;0.55;;;10.20;99.90;;;;;;4428653;32;20058;-64
2022/12/29 13:01:29;;;;;;;0.30;0.30;;;10.30;99.90;;;;;;4442167;32;20057;-65
2022/12/29 13:04:27;;;;;;;0.30;0.30;;;10.50;99.90;;;;;;4428688;32;20113;-65
2022/12/29 13:07:07;;;;;;;0.30;0.30;;;10.50;99.90;;;;;;4415767;32;20097;-64
2022/12/29 13:09:48;;;;;;;0.30;0.30;;;10.40;99.90;;;;;;4438822;32;20101;-64
2022/12/29 13:12:18;;;;;;;;;;;10.60;99.90;;;;;;4424572;32;20466;-65
2022/12/29 13:15:03;;;;;;;0.30;0.30;;;11.00;99.90;;;;;;4425401;32;19960;-64
2022/12/29 13:17:54;;;;;;;0.30;0.30;;;11.20;99.90;;;;;;4435198;32;20182;-63
2022/12/29 13:20:44;;;;;;;0.32;0.32;;;11.30;99.90;;;;;;4439954;32;20094;-64
2022/12/29 13:23:20;;;;;;;0.40;0.40;;;11.40;99.90;;;;;;4429496;32;20089;-64
2022/12/29 13:25:55;;;;;;;0.30;0.30;;;11.20;99.90;;;;;;4432039;32;20069;-64
2022/12/29 13:28:31;;;;;;;0.28;0.28;;;11.00;99.90;;;;;;4434996;32;20065;-64
2022/12/29 13:31:15;;;;;;;0.30;0.30;;;10.90;99.90;;;;;;4440604;32;20890;-63